createdAt,value
2022-12-26T00:00:49.171Z,6.64
2022-12-26T00:03:56.306Z,6.58
2022-12-26T00:07:02.679Z,6.60
2022-12-26T00:10:08.130Z,6.62
2022-12-26T00:13:38.169Z,6.61
2022-12-26T00:16:43.783Z,6.68
2022-12-26T00:19:50.110Z,6.76
2022-12-26T00:22:56.386Z,6.83
2022-12-26T00:26:07.038Z,6.90
2022-12-26T00:29:13.223Z,6.95
2022-12-26T00:32:19.528Z,6.98
2022-12-26T00:35:24.011Z,7.02
2022-12-26T00:38:30.351Z,7.04
2022-12-26T00:41:34.847Z,7.09
2022-12-26T00:44:41.242Z,7.10
2022-12-26T00:47:45.710Z,7.11
2022-12-26T00:50:52.229Z,7.02
2022-12-26T00:53:58.526Z,6.95
2022-12-26T00:57:03.185Z,6.86
2022-12-26T01:00:11.711Z,6.80
2022-12-26T01:03:18.754Z,6.79
2022-12-26T01:06:25.063Z,6.80
2022-12-26T01:09:29.581Z,6.84
2022-12-26T01:12:36.172Z,6.83
2022-12-26T01:15:48.388Z,6.86
2022-12-26T01:18:54.636Z,6.88
2022-12-26T01:22:00.858Z,6.90
2022-12-26T01:25:09.045Z,6.91
2022-12-26T01:28:15.089Z,6.86
2022-12-26T01:31:22.063Z,6.81
2022-12-26T01:34:28.260Z,6.74
2022-12-26T01:37:34.517Z,6.70
2022-12-26T01:40:43.628Z,6.70
2022-12-26T01:43:54.415Z,6.71
2022-12-26T01:47:00.726Z,6.76
2022-12-26T01:50:06.312Z,6.78
2022-12-26T01:53:18.954Z,6.77
2022-12-26T01:56:31.013Z,6.85
2022-12-26T01:59:40.814Z,6.91
2022-12-26T02:03:06.233Z,6.95
2022-12-26T02:06:15.244Z,6.93
2022-12-26T02:09:22.208Z,6.94
2022-12-26T02:12:36.438Z,6.95
2022-12-26T02:15:45.052Z,6.95
2022-12-26T02:18:51.351Z,6.96
2022-12-26T02:22:09.370Z,6.99
2022-12-26T02:25:43.395Z,6.97
2022-12-26T02:29:25.296Z,7.00
2022-12-26T02:32:47.381Z,7.01
2022-12-26T02:36:12.684Z,7.00
2022-12-26T02:39:44.973Z,7.01
2022-12-26T02:42:59.753Z,7.03
2022-12-26T02:46:32.756Z,7.07
2022-12-26T02:50:10.791Z,7.12
2022-12-26T02:53:42.354Z,7.15
2022-12-26T02:57:11.555Z,7.17
2022-12-26T03:00:39.323Z,7.20
2022-12-26T03:04:06.790Z,7.23
2022-12-26T03:07:38.451Z,7.24
2022-12-26T03:11:02.541Z,7.25
2022-12-26T03:14:17.197Z,7.28
2022-12-26T03:17:29.956Z,7.30
2022-12-26T03:20:38.085Z,7.33
2022-12-26T03:23:47.775Z,7.34
2022-12-26T03:26:56.127Z,7.32
2022-12-26T03:30:28.183Z,7.32
2022-12-26T03:33:55.416Z,7.37
2022-12-26T03:37:22.513Z,7.50
2022-12-26T03:40:58.980Z,7.70
2022-12-26T03:44:38.448Z,8.06
2022-12-26T03:48:10.671Z,8.41
2022-12-26T03:51:42.735Z,8.80
2022-12-26T03:55:16.291Z,9.15
2022-12-26T03:58:45.973Z,9.45
2022-12-26T04:02:10.797Z,9.74
2022-12-26T04:05:36.129Z,10.04
2022-12-26T04:09:05.165Z,10.28
2022-12-26T04:12:35.500Z,10.55
2022-12-26T04:16:04.629Z,10.73
2022-12-26T04:19:28.097Z,10.97
2022-12-26T04:23:01.987Z,11.16
2022-12-26T04:26:31.347Z,11.31
2022-12-26T04:29:55.172Z,11.43
2022-12-26T04:33:25.504Z,11.55
2022-12-26T04:36:55.627Z,11.68
2022-12-26T04:40:20.838Z,11.73
2022-12-26T04:43:49.319Z,11.82
2022-12-26T04:46:59.170Z,11.87
2022-12-26T04:50:15.105Z,11.90
2022-12-26T04:53:22.079Z,11.94
2022-12-26T04:56:28.377Z,11.99
2022-12-26T04:59:33.042Z,12.04
2022-12-26T05:02:57.550Z,12.06
2022-12-26T05:06:22.134Z,12.12
2022-12-26T05:09:39.585Z,12.16
2022-12-26T05:12:45.927Z,12.23
2022-12-26T05:16:08.014Z,12.28
2022-12-26T05:19:47.844Z,12.34
2022-12-26T05:23:12.642Z,12.38
2022-12-26T05:26:39.988Z,12.43
2022-12-26T05:29:46.409Z,12.50
2022-12-26T05:33:07.983Z,12.56
2022-12-26T05:36:14.941Z,12.61
2022-12-26T05:39:21.525Z,12.65
2022-12-26T05:42:27.745Z,12.70
2022-12-26T05:45:32.256Z,12.73
2022-12-26T05:48:38.502Z,12.71
2022-12-26T05:51:43.040Z,12.76
2022-12-26T05:54:49.285Z,12.76
2022-12-26T05:57:53.874Z,12.77
2022-12-26T06:01:10.084Z,12.75
2022-12-26T06:04:16.488Z,12.82
2022-12-26T06:07:22.793Z,12.83
2022-12-26T06:10:29.827Z,12.82
2022-12-26T06:13:36.450Z,12.83
2022-12-26T06:16:42.780Z,12.87
2022-12-26T06:19:48.973Z,12.88
2022-12-26T06:22:53.584Z,12.89
2022-12-26T06:26:00.099Z,12.86
2022-12-26T06:29:06.363Z,12.88
2022-12-26T06:32:10.906Z,12.90
2022-12-26T06:35:17.154Z,12.88
2022-12-26T06:38:21.665Z,12.90
2022-12-26T06:41:28.337Z,12.89
2022-12-26T06:44:34.492Z,12.92
2022-12-26T06:47:39.010Z,12.89
2022-12-26T06:50:45.261Z,12.85
2022-12-26T06:53:50.120Z,12.87
2022-12-26T06:56:56.362Z,12.84
2022-12-26T07:00:00.822Z,12.85
2022-12-26T07:03:07.319Z,12.84
2022-12-26T07:06:25.786Z,12.87
2022-12-26T07:09:34.094Z,12.89
2022-12-26T07:12:40.631Z,12.88
2022-12-26T07:15:48.723Z,12.90
2022-12-26T07:18:57.277Z,12.90
2022-12-26T07:22:03.623Z,12.90
2022-12-26T07:25:11.396Z,12.91
2022-12-26T07:28:17.854Z,12.94
2022-12-26T07:31:24.708Z,12.97
2022-12-26T07:34:32.092Z,13.01
2022-12-26T07:37:38.697Z,13.03
2022-12-26T07:40:44.955Z,13.03
2022-12-26T07:43:49.592Z,13.02
2022-12-26T07:46:56.491Z,12.96
2022-12-26T07:50:02.744Z,12.98
2022-12-26T07:53:07.367Z,12.98
2022-12-26T07:56:13.738Z,12.97
2022-12-26T07:59:20.511Z,13.04
2022-12-26T08:02:27.011Z,13.12
2022-12-26T08:05:33.445Z,13.17
2022-12-26T08:08:41.926Z,13.18
2022-12-26T08:11:51.831Z,13.18
2022-12-26T08:14:56.346Z,13.21
2022-12-26T08:18:02.632Z,13.22
2022-12-26T08:21:08.878Z,13.30
2022-12-26T08:24:13.507Z,13.39
2022-12-26T08:27:19.754Z,13.40
2022-12-26T08:30:24.300Z,13.49
2022-12-26T08:33:30.562Z,13.52
2022-12-26T08:36:35.091Z,13.58
2022-12-26T08:39:41.317Z,13.58
2022-12-26T08:43:03.388Z,13.66
2022-12-26T08:46:13.823Z,13.68
2022-12-26T08:49:20.431Z,13.73
2022-12-26T08:52:26.759Z,13.79
2022-12-26T08:55:33.073Z,13.83
2022-12-26T08:58:39.420Z,13.87
2022-12-26T09:01:46.016Z,13.92
2022-12-26T09:04:52.368Z,13.97
2022-12-26T09:08:00.567Z,14.02
2022-12-26T09:11:09.419Z,14.06
2022-12-26T09:14:15.886Z,14.10
2022-12-26T09:17:22.165Z,14.13
2022-12-26T09:20:28.431Z,14.15
2022-12-26T09:23:33.251Z,14.19
2022-12-26T09:26:39.626Z,14.20
2022-12-26T09:29:45.901Z,14.26
2022-12-26T09:32:53.203Z,14.29
2022-12-26T09:36:03.854Z,14.33
2022-12-26T09:39:13.236Z,14.39
2022-12-26T09:42:33.778Z,14.45
2022-12-26T09:45:53.410Z,14.51
2022-12-26T09:49:04.134Z,14.59
2022-12-26T09:52:17.651Z,14.67
2022-12-26T09:55:38.926Z,14.74
2022-12-26T09:58:49.684Z,14.80
2022-12-26T10:01:56.585Z,14.75
2022-12-26T10:05:02.990Z,14.25
2022-12-26T10:08:25.758Z,13.74
2022-12-26T10:11:44.012Z,13.52
2022-12-26T10:14:56.697Z,13.86
2022-12-26T10:18:16.511Z,14.15
2022-12-26T10:21:36.901Z,14.33
2022-12-26T10:24:45.070Z,14.45
2022-12-26T10:27:53.105Z,14.54
2022-12-26T10:31:03.909Z,14.61
2022-12-26T10:34:18.643Z,14.66
2022-12-26T10:37:29.368Z,14.74
2022-12-26T10:40:41.938Z,14.49
2022-12-26T10:43:48.465Z,13.92
2022-12-26T10:47:21.165Z,13.64
2022-12-26T10:50:31.961Z,13.93
2022-12-26T10:53:41.726Z,14.17
2022-12-26T10:56:49.533Z,14.34
2022-12-26T10:59:57.324Z,14.50
2022-12-26T11:03:09.080Z,14.62
2022-12-26T11:06:15.336Z,14.75
2022-12-26T11:09:29.595Z,14.86
2022-12-26T11:12:43.015Z,14.93
2022-12-26T11:15:53.795Z,14.96
2022-12-26T11:19:00.468Z,14.55
2022-12-26T11:22:26.601Z,14.10
2022-12-26T11:25:35.267Z,13.94
2022-12-26T11:28:41.543Z,14.28
2022-12-26T11:32:02.875Z,14.59
2022-12-26T11:35:17.462Z,14.80
2022-12-26T11:38:44.584Z,14.93
2022-12-26T11:41:52.512Z,15.08
2022-12-26T11:45:03.908Z,15.11
2022-12-26T11:48:24.692Z,14.66
2022-12-26T11:51:43.775Z,14.22
2022-12-26T11:54:52.822Z,14.41
2022-12-26T11:58:06.590Z,14.73
2022-12-26T12:01:22.479Z,14.92
2022-12-26T12:04:28.670Z,15.10
2022-12-26T12:07:52.579Z,15.27
2022-12-26T12:11:07.367Z,15.05
2022-12-26T12:14:48.063Z,14.56
2022-12-26T12:18:04.207Z,14.17
2022-12-26T12:21:21.459Z,14.10
2022-12-26T12:24:45.360Z,14.56
2022-12-26T12:27:59.959Z,14.97
2022-12-26T12:31:15.796Z,15.24
2022-12-26T12:34:24.456Z,15.43
2022-12-26T12:37:41.121Z,15.46
2022-12-26T12:40:54.492Z,15.02
2022-12-26T12:44:11.796Z,14.59
2022-12-26T12:47:28.139Z,14.39
2022-12-26T12:50:45.671Z,14.74
2022-12-26T12:54:41.511Z,15.06
2022-12-26T12:57:51.612Z,15.26
2022-12-26T13:01:00.874Z,15.32
2022-12-26T13:04:12.790Z,15.38
2022-12-26T13:07:25.736Z,15.29
2022-12-26T13:10:36.084Z,14.76
2022-12-26T13:13:53.554Z,14.28
2022-12-26T13:17:04.676Z,13.91
2022-12-26T13:20:24.775Z,13.74
2022-12-26T13:23:52.039Z,14.06
2022-12-26T13:27:10.630Z,14.33
2022-12-26T13:30:19.007Z,14.47
2022-12-26T13:33:25.843Z,14.56
2022-12-26T13:36:40.787Z,14.63
2022-12-26T13:39:47.047Z,14.71
2022-12-26T13:43:11.167Z,14.73
2022-12-26T13:46:39.382Z,14.74
2022-12-26T13:49:46.075Z,14.78
2022-12-26T13:52:53.529Z,14.79
2022-12-26T13:56:02.384Z,14.78
2022-12-26T13:59:19.236Z,14.77
2022-12-26T14:03:16.893Z,14.74
2022-12-26T14:06:52.049Z,14.72
2022-12-26T14:10:05.962Z,14.69
2022-12-26T14:13:33.768Z,14.64
2022-12-26T14:16:48.194Z,14.59
2022-12-26T14:20:04.244Z,14.56
2022-12-26T14:23:25.513Z,14.55
2022-12-26T14:26:41.915Z,14.55
2022-12-26T14:29:55.707Z,14.52
2022-12-26T14:33:23.944Z,14.48
2022-12-26T14:36:41.347Z,14.44
2022-12-26T14:40:10.046Z,14.41
2022-12-26T14:43:41.453Z,14.36
2022-12-26T14:47:03.135Z,14.30
2022-12-26T14:50:44.564Z,14.29
2022-12-26T14:54:25.628Z,14.27
2022-12-26T14:57:49.530Z,14.28
2022-12-26T15:00:57.563Z,14.29
2022-12-26T15:04:08.540Z,14.29
2022-12-26T15:07:56.208Z,14.32
2022-12-26T15:11:45.376Z,14.34
2022-12-26T15:15:19.962Z,14.38
2022-12-26T15:19:05.812Z,14.37
2022-12-26T15:22:39.098Z,14.35
2022-12-26T15:26:14.237Z,14.37
2022-12-26T15:29:40.510Z,14.38
2022-12-26T15:32:59.027Z,14.37
2022-12-26T15:36:08.518Z,14.38
2022-12-26T15:39:25.773Z,14.36
2022-12-26T15:42:44.803Z,14.36
2022-12-26T15:45:56.888Z,14.33
2022-12-26T15:49:26.742Z,14.29
2022-12-26T15:52:44.838Z,14.26
2022-12-26T15:56:05.771Z,14.25
2022-12-26T15:59:53.884Z,14.22
2022-12-26T16:03:19.363Z,14.19
2022-12-26T16:06:41.418Z,14.18
2022-12-26T16:09:51.900Z,14.17
2022-12-26T16:13:07.521Z,14.15
2022-12-26T16:16:24.312Z,14.11
2022-12-26T16:19:30.819Z,14.08
2022-12-26T16:22:47.087Z,14.06
2022-12-26T16:25:55.647Z,14.07
2022-12-26T16:29:03.364Z,14.09
2022-12-26T16:32:15.577Z,14.10
2022-12-26T16:35:25.715Z,14.10
2022-12-26T16:38:33.175Z,14.10
2022-12-26T16:41:58.729Z,14.12
2022-12-26T16:45:05.668Z,14.12
2022-12-26T16:48:15.136Z,14.12
2022-12-26T16:51:40.373Z,14.12
2022-12-26T16:54:46.669Z,14.14
2022-12-26T16:57:52.084Z,14.15
2022-12-26T17:01:07.211Z,14.13
2022-12-26T17:04:23.038Z,14.15
2022-12-26T17:07:30.652Z,14.16
2022-12-26T17:10:38.953Z,14.17
2022-12-26T17:13:54.248Z,14.17
2022-12-26T17:17:05.038Z,14.16
2022-12-26T17:20:36.342Z,14.16
2022-12-26T17:23:43.210Z,14.15
2022-12-26T17:26:54.086Z,14.14
2022-12-26T17:30:02.213Z,14.13
2022-12-26T17:33:15.800Z,14.13
2022-12-26T17:37:00.507Z,14.16
2022-12-26T17:39:59.056Z,14.18
2022-12-26T17:43:22.214Z,14.19
2022-12-26T17:46:28.555Z,14.19
2022-12-26T17:49:34.747Z,14.17
2022-12-26T17:52:39.213Z,14.11
2022-12-26T18:08:29.617Z,13.62
2022-12-26T18:11:36.187Z,13.58
2022-12-26T18:14:42.280Z,13.57
2022-12-26T18:17:47.657Z,13.56
2022-12-26T18:20:53.747Z,13.53
2022-12-26T18:23:59.949Z,13.52
2022-12-26T18:27:04.529Z,13.52
2022-12-26T18:30:17.685Z,13.50
2022-12-26T18:33:24.261Z,13.48
2022-12-26T18:36:34.075Z,13.46
2022-12-26T18:39:40.259Z,13.44
2022-12-26T18:42:44.727Z,13.40
2022-12-26T18:45:51.785Z,13.33
2022-12-26T18:48:58.193Z,13.31
2022-12-26T18:52:04.666Z,13.27
2022-12-26T18:55:11.773Z,13.25
2022-12-26T18:58:17.782Z,13.27
2022-12-26T19:01:24.402Z,13.29
2022-12-26T19:04:30.879Z,13.27
2022-12-26T19:07:37.172Z,13.25
2022-12-26T19:10:47.489Z,13.24
2022-12-26T19:13:53.689Z,13.23
2022-12-26T19:16:58.137Z,13.19
2022-12-26T19:20:05.106Z,13.14
2022-12-26T19:23:11.252Z,13.16
2022-12-26T19:26:17.348Z,13.15
2022-12-26T19:29:23.937Z,13.14
2022-12-26T19:32:30.521Z,13.20
2022-12-26T19:35:37.096Z,13.23
2022-12-26T19:38:43.892Z,13.24
2022-12-26T19:41:51.068Z,13.23
2022-12-26T19:44:58.096Z,13.25
2022-12-26T19:48:05.277Z,13.27
2022-12-26T19:51:13.658Z,13.27
2022-12-26T19:54:20.744Z,13.30
2022-12-26T19:57:27.814Z,13.34
2022-12-26T20:00:34.542Z,13.35
2022-12-26T20:03:42.394Z,13.39
2022-12-26T20:06:49.458Z,13.44
2022-12-26T20:09:56.266Z,13.47
2022-12-26T20:13:02.789Z,13.51
2022-12-26T20:16:37.341Z,13.56
2022-12-26T20:19:39.891Z,13.61
2022-12-26T20:22:52.838Z,13.62
2022-12-26T20:26:01.396Z,13.64
2022-12-26T20:29:08.506Z,13.65
2022-12-26T20:32:14.980Z,13.64
2022-12-26T20:35:21.405Z,13.63
2022-12-26T20:38:27.640Z,13.61
2022-12-26T20:41:32.129Z,13.62
2022-12-26T20:44:41.547Z,13.59
2022-12-26T20:47:48.078Z,13.60
2022-12-26T20:51:00.835Z,13.62
2022-12-26T20:54:07.748Z,13.62
2022-12-26T20:57:14.026Z,13.62
2022-12-26T21:00:19.141Z,13.63
2022-12-26T21:03:25.718Z,13.58
2022-12-26T21:06:34.250Z,13.58
2022-12-26T21:09:46.006Z,13.59
2022-12-26T21:12:53.192Z,13.59
2022-12-26T21:16:09.748Z,13.57
2022-12-26T21:19:17.004Z,13.55
2022-12-26T21:22:26.747Z,13.54
2022-12-26T21:25:34.410Z,13.55
2022-12-26T21:28:41.056Z,13.53
2022-12-26T21:31:48.645Z,13.52
2022-12-26T21:34:54.857Z,13.54
2022-12-26T21:37:59.512Z,13.56
2022-12-26T21:41:07.223Z,13.56
2022-12-26T21:44:13.517Z,13.59
2022-12-26T21:47:19.836Z,13.61
2022-12-26T21:50:26.182Z,13.62
2022-12-26T21:53:32.509Z,13.63
2022-12-26T21:56:38.948Z,13.65
2022-12-26T21:59:57.800Z,13.67
2022-12-26T22:03:37.938Z,13.69
2022-12-26T22:06:45.096Z,13.72
2022-12-26T22:09:51.516Z,13.75
2022-12-26T22:13:00.867Z,13.76
2022-12-26T22:16:10.216Z,13.77
2022-12-26T22:19:16.439Z,13.78
2022-12-26T22:22:21.035Z,13.76
2022-12-26T22:25:27.414Z,13.73
2022-12-26T22:28:33.997Z,13.74
2022-12-26T22:31:40.408Z,13.74
2022-12-26T22:34:46.578Z,13.75
2022-12-26T22:37:51.059Z,13.77
2022-12-26T22:41:01.407Z,13.75
2022-12-26T22:44:08.459Z,13.77
2022-12-26T22:47:14.693Z,13.78
2022-12-26T22:50:19.067Z,13.79
2022-12-26T22:53:27.381Z,13.77
2022-12-26T22:56:34.407Z,13.80
2022-12-26T23:00:07.468Z,13.77
2022-12-26T23:03:07.308Z,13.77
2022-12-26T23:06:23.425Z,13.77
2022-12-26T23:09:30.915Z,13.76
2022-12-26T23:12:48.076Z,13.78
2022-12-26T23:16:00.810Z,13.79
2022-12-26T23:19:37.982Z,13.80
2022-12-26T23:22:44.701Z,13.78
2022-12-26T23:25:50.857Z,13.79
2022-12-26T23:29:12.840Z,13.79
2022-12-26T23:32:19.130Z,13.74
2022-12-26T23:35:26.932Z,13.77
2022-12-26T23:38:33.186Z,13.76
2022-12-26T23:41:37.727Z,13.75
2022-12-26T23:44:44.205Z,13.69
2022-12-26T23:47:50.388Z,13.72
2022-12-26T23:51:05.739Z,13.73
2022-12-26T23:54:12.097Z,13.73
2022-12-26T23:57:18.327Z,13.72
